Time,TemperatureF,DewpointF,PressureIn,WindDirection,WindDirectionDegrees,WindSpeedMPH,WindSpeedGustMPH,Humidity,HourlyPrecipIn,Conditions,Clouds,dailyrainin,SoftwareType,DateUTC
2013-05-20 00:00:00,55.9,32.0,30.16,SE,136,3.0,13.0,40,0.03,,---,0.00,VWS V14.01,2013-05-20 04:00:00,
2013-05-20 00:01:00,56.0,32.0,30.14,SE,127,0.0,4.0,40,0.02,,---,0.01,VWS V14.01,2013-05-20 04:01:00,
2013-05-20 00:06:00,56.0,32.0,30.14,SE,127,1.0,4.0,40,0.01,,---,0.01,VWS V14.01,2013-05-20 04:06:00,
2013-05-20 00:11:00,56.0,32.0,30.14,SE,127,2.0,4.0,40,0.01,,---,0.01,VWS V14.01,2013-05-20 04:11:00,
2013-05-20 00:16:00,56.0,32.0,30.14,SE,127,0.0,4.0,40,0.01,,---,0.01,VWS V14.01,2013-05-20 04:16:00,
2013-05-20 00:21:00,56.0,32.0,30.14,SE,127,0.0,4.0,40,0.01,,---,0.01,VWS V14.01,2013-05-20 04:21:00,
2013-05-20 00:26:00,56.0,32.0,30.14,SE,127,0.0,4.0,40,0.01,,---,0.01,VWS V14.01,2013-05-20 04:26:00,
2013-05-20 00:30:00,55.9,32.0,30.16,SE,127,0.0,8.0,40,0.01,,---,0.00,VWS V14.01,2013-05-20 04:30:00,
2013-05-20 00:31:00,56.0,32.0,30.12,SE,127,0.0,4.0,40,0.01,,---,0.01,VWS V14.01,2013-05-20 04:31:00,
2013-05-20 00:36:00,56.2,32.2,30.12,SE,127,2.0,3.0,40,0.01,,---,0.01,VWS V14.01,2013-05-20 04:36:00,
2013-05-20 00:41:00,56.2,32.2,30.12,SE,127,0.0,4.0,40,0.01,,---,0.01,VWS V14.01,2013-05-20 04:41:00,
2013-05-20 00:46:00,56.2,32.2,30.11,SE,127,0.0,4.0,40,0.02,,---,0.02,VWS V14.01,2013-05-20 04:46:00,
2013-05-20 00:51:00,56.3,32.3,30.11,SE,127,0.0,4.0,40,0.02,,---,0.02,VWS V14.01,2013-05-20 04:51:00,
2013-05-20 00:56:00,56.3,32.3,30.11,SE,127,0.0,4.0,40,0.02,,---,0.02,VWS V14.01,2013-05-20 04:56:00,
2013-05-20 01:00:00,56.0,32.0,30.14,SE,126,0.0,4.0,40,0.02,,---,0.01,VWS V14.01,2013-05-20 05:00:00,
2013-05-20 01:01:00,56.3,32.3,30.10,SE,127,0.0,4.0,40,0.02,,---,0.02,VWS V14.01,2013-05-20 05:01:00,
2013-05-20 01:06:00,56.5,32.5,30.10,SE,127,0.0,0.0,40,0.01,,---,0.02,VWS V14.01,2013-05-20 05:06:00,
2013-05-20 01:11:00,56.6,32.6,30.10,SE,127,0.0,2.0,40,0.01,,---,0.02,VWS V14.01,2013-05-20 05:11:00,
2013-05-20 01:16:00,56.7,32.7,30.09,SE,127,0.0,3.0,40,0.01,,---,0.02,VWS V14.01,2013-05-20 05:16:00,
2013-05-20 01:21:00,56.9,32.8,30.09,SE,127,1.0,4.0,40,0.01,,---,0.02,VWS V14.01,2013-05-20 05:21:00,
2013-05-20 01:26:00,57.0,32.9,30.09,SE,127,1.0,4.0,40,0.01,,---,0.02,VWS V14.01,2013-05-20 05:26:00,
2013-05-20 01:30:00,56.0,32.0,30.12,SE,127,1.0,4.0,40,0.01,,---,0.01,VWS V14.01,2013-05-20 05:30:00,
2013-05-20 01:31:00,57.2,33.1,30.08,SE,127,3.0,4.0,40,0.01,,---,0.02,VWS V14.01,2013-05-20 05:31:00,
2013-05-20 01:36:00,57.3,33.2,30.08,SE,127,2.0,4.0,40,0.01,,---,0.02,VWS V14.01,2013-05-20 05:36:00,
2013-05-20 01:41:00,57.5,33.4,30.08,SE,127,0.0,4.0,40,0.02,,---,0.03,VWS V14.01,2013-05-20 05:41:00,
2013-05-20 01:46:00,57.5,33.4,30.09,SE,127,0.0,4.0,40,0.02,,---,0.03,VWS V14.01,2013-05-20 05:46:00,
2013-05-20 01:51:00,57.5,33.4,30.09,SE,127,0.0,4.0,40,0.02,,---,0.03,VWS V14.01,2013-05-20 05:51:00,
2013-05-20 01:56:00,57.5,33.4,30.09,SE,127,0.0,4.0,40,0.03,,---,0.04,VWS V14.01,2013-05-20 05:56:00,
2013-05-20 02:00:00,56.3,32.3,30.10,SE,127,0.0,4.0,40,0.02,,---,0.02,VWS V14.01,2013-05-20 06:00:00,
2013-05-20 02:01:00,57.5,33.4,30.08,SE,127,3.0,4.0,40,0.03,,---,0.04,VWS V14.01,2013-05-20 06:01:00,
2013-05-20 02:06:00,57.6,33.5,30.08,SE,127,1.0,3.0,40,0.02,,---,0.04,VWS V14.01,2013-05-20 06:06:00,
2013-05-20 02:11:00,57.6,33.5,30.08,SE,127,0.0,3.0,40,0.02,,---,0.04,VWS V14.01,2013-05-20 06:11:00,
2013-05-20 02:16:00,57.6,33.5,30.08,SE,127,0.0,3.0,40,0.02,,---,0.04,VWS V14.01,2013-05-20 06:16:00,
2013-05-20 02:21:00,57.6,33.5,30.08,SE,127,2.0,5.0,40,0.02,,---,0.04,VWS V14.01,2013-05-20 06:21:00,
2013-05-20 02:26:00,57.6,33.5,30.08,SE,127,5.0,5.0,40,0.02,,---,0.04,VWS V14.01,2013-05-20 06:26:00,
2013-05-20 02:30:00,57.2,33.1,30.08,SE,127,2.0,4.0,40,0.01,,---,0.02,VWS V14.01,2013-05-20 06:30:00,
2013-05-20 02:31:00,57.6,33.5,30.07,SE,127,0.0,5.0,40,0.02,,---,0.04,VWS V14.01,2013-05-20 06:31:00,
2013-05-20 02:36:00,57.6,33.5,30.07,SE,127,0.0,2.0,40,0.02,,---,0.04,VWS V14.01,2013-05-20 06:36:00,
2013-05-20 02:41:00,57.6,33.5,30.07,SE,127,0.0,2.0,40,0.02,,---,0.04,VWS V14.01,2013-05-20 06:41:00,
2013-05-20 02:46:00,57.6,33.5,30.06,SE,127,0.0,2.0,40,0.02,,---,0.04,VWS V14.01,2013-05-20 06:46:00,
2013-05-20 02:51:00,57.6,33.5,30.06,SE,127,0.0,2.0,40,0.02,,---,0.04,VWS V14.01,2013-05-20 06:51:00,
2013-05-20 02:56:00,57.6,33.5,30.06,SE,127,0.0,2.0,40,0.02,,---,0.04,VWS V14.01,2013-05-20 06:56:00,
2013-05-20 03:00:00,57.5,33.4,30.08,SE,127,3.0,4.0,40,0.03,,---,0.04,VWS V14.01,2013-05-20 07:00:00,
2013-05-20 03:01:00,57.6,33.5,30.06,SE,127,0.0,2.0,40,0.02,,---,0.04,VWS V14.01,2013-05-20 07:01:00,
2013-05-20 03:06:00,57.6,33.5,30.06,SE,127,0.0,0.0,40,0.00,,---,0.04,VWS V14.01,2013-05-20 07:06:00,
2013-05-20 03:11:00,57.6,33.5,30.06,SE,127,0.0,0.0,40,0.00,,---,0.04,VWS V14.01,2013-05-20 07:11:00,
2013-05-20 03:16:00,57.6,33.5,30.06,SE,127,0.0,0.0,40,0.00,,---,0.04,VWS V14.01,2013-05-20 07:16:00,
2013-05-20 03:21:00,57.6,33.5,30.06,SE,127,0.0,0.0,40,0.00,,---,0.04,VWS V14.01,2013-05-20 07:21:00,
2013-05-20 03:27:00,57.6,33.5,30.06,SE,127,0.0,0.0,40,0.00,,---,0.04,VWS V14.01,2013-05-20 07:27:00,
2013-05-20 03:30:00,57.6,33.5,30.07,SE,127,0.0,5.0,40,0.02,,---,0.04,VWS V14.01,2013-05-20 07:30:00,
2013-05-20 03:32:00,57.6,33.5,30.05,SE,127,0.0,0.0,40,0.00,,---,0.04,VWS V14.01,2013-05-20 07:32:00,
2013-05-20 03:37:00,57.6,33.5,30.05,SE,127,0.0,0.0,40,0.00,,---,0.04,VWS V14.01,2013-05-20 07:37:00,
2013-05-20 03:42:00,57.6,33.5,30.05,SE,127,0.0,0.0,40,0.00,,---,0.04,VWS V14.01,2013-05-20 07:42:00,
2013-05-20 03:47:00,57.6,33.5,30.05,SE,127,0.0,0.0,40,0.00,,---,0.04,VWS V14.01,2013-05-20 07:47:00,
2013-05-20 03:52:00,57.6,33.5,30.05,SE,127,0.0,0.0,40,0.00,,---,0.04,VWS V14.01,2013-05-20 07:52:00,
2013-05-20 03:57:00,57.5,33.4,30.05,SE,127,0.0,0.0,40,0.00,,---,0.04,VWS V14.01,2013-05-20 07:57:00,
2013-05-20 04:00:00,57.6,33.5,30.06,SE,127,0.0,2.0,40,0.02,,---,0.04,VWS V14.01,2013-05-20 08:00:00,
2013-05-20 04:02:00,57.5,33.4,30.04,SE,127,0.0,0.0,40,0.00,,---,0.04,VWS V14.01,2013-05-20 08:02:00,
2013-05-20 04:07:00,57.5,33.4,30.04,SE,127,0.0,1.0,40,0.00,,---,0.04,VWS V14.01,2013-05-20 08:07:00,
2013-05-20 04:12:00,57.5,33.4,30.04,SE,127,0.0,1.0,40,0.00,,---,0.04,VWS V14.01,2013-05-20 08:12:00,
2013-05-20 04:17:00,57.5,33.4,30.03,SE,127,0.0,1.0,40,0.00,,---,0.04,VWS V14.01,2013-05-20 08:17:00,
2013-05-20 04:22:00,57.5,33.4,30.03,SE,127,0.0,1.0,40,0.00,,---,0.04,VWS V14.01,2013-05-20 08:22:00,
2013-05-20 04:27:00,57.6,33.5,30.03,SE,127,0.0,1.0,40,0.00,,---,0.04,VWS V14.01,2013-05-20 08:27:00,
2013-05-20 04:30:00,57.6,33.5,30.05,SE,127,0.0,0.0,40,0.00,,---,0.04,VWS V14.01,2013-05-20 08:30:00,
2013-05-20 04:32:00,57.6,33.5,30.03,SE,127,0.0,0.0,40,0.00,,---,0.04,VWS V14.01,2013-05-20 08:32:00,
2013-05-20 04:37:00,57.6,33.5,30.03,SE,127,0.0,0.0,40,0.00,,---,0.04,VWS V14.01,2013-05-20 08:37:00,
2013-05-20 04:42:00,57.6,33.5,30.03,SE,127,0.0,1.0,40,0.00,,---,0.04,VWS V14.01,2013-05-20 08:42:00,
2013-05-20 04:47:00,57.5,33.4,30.03,SE,127,0.0,1.0,40,0.00,,---,0.04,VWS V14.01,2013-05-20 08:47:00,
2013-05-20 04:52:00,57.5,33.4,30.03,SE,127,0.0,1.0,40,0.00,,---,0.04,VWS V14.01,2013-05-20 08:52:00,
2013-05-20 04:57:00,57.5,33.4,30.03,SE,127,0.0,2.0,40,0.00,,---,0.04,VWS V14.01,2013-05-20 08:57:00,
2013-05-20 05:00:00,57.5,33.4,30.04,SE,127,0.0,0.0,40,0.00,,---,0.04,VWS V14.01,2013-05-20 09:00:00,
2013-05-20 05:02:00,57.5,33.4,30.02,SE,127,0.0,0.0,40,0.00,,---,0.04,VWS V14.01,2013-05-20 09:02:00,
2013-05-20 05:07:00,57.5,33.4,30.02,SE,127,0.0,0.0,40,0.00,,---,0.04,VWS V14.01,2013-05-20 09:07:00,
2013-05-20 05:12:00,57.5,33.4,30.02,SE,127,0.0,0.0,40,0.00,,---,0.04,VWS V14.01,2013-05-20 09:12:00,
2013-05-20 05:17:00,57.5,33.4,30.02,SE,127,0.0,0.0,40,0.00,,---,0.04,VWS V14.01,2013-05-20 09:17:00,
2013-05-20 05:22:00,57.5,33.4,30.02,SE,127,0.0,0.0,40,0.00,,---,0.04,VWS V14.01,2013-05-20 09:22:00,
2013-05-20 05:27:00,57.5,33.4,30.02,SE,127,0.0,0.0,40,0.00,,---,0.04,VWS V14.01,2013-05-20 09:27:00,
2013-05-20 05:30:00,57.6,33.5,30.03,SE,127,0.0,1.0,40,0.00,,---,0.04,VWS V14.01,2013-05-20 09:30:00,
2013-05-20 05:32:00,57.5,33.4,30.01,SE,127,0.0,0.0,40,0.00,,---,0.04,VWS V14.01,2013-05-20 09:32:00,
2013-05-20 05:37:00,57.5,33.4,30.01,SE,127,0.0,1.0,40,0.00,,---,0.04,VWS V14.01,2013-05-20 09:37:00,
2013-05-20 05:42:00,57.5,33.4,30.01,SE,127,0.0,1.0,40,0.00,,---,0.04,VWS V14.01,2013-05-20 09:42:00,
2013-05-20 05:47:00,57.5,33.4,30.01,SE,127,0.0,1.0,40,0.00,,---,0.04,VWS V14.01,2013-05-20 09:47:00,
2013-05-20 05:52:00,57.5,33.4,30.01,SE,127,0.0,1.0,40,0.00,,---,0.04,VWS V14.01,2013-05-20 09:52:00,
2013-05-20 05:57:00,57.6,33.5,30.01,SE,127,0.0,1.0,40,0.00,,---,0.04,VWS V14.01,2013-05-20 09:57:00,
2013-05-20 06:00:00,57.5,33.4,30.02,SE,127,0.0,2.0,40,0.00,,---,0.04,VWS V14.01,2013-05-20 10:00:00,
2013-05-20 06:02:00,57.6,33.5,30.02,SE,127,0.0,0.0,40,0.00,,---,0.04,VWS V14.01,2013-05-20 10:02:00,
2013-05-20 06:07:00,57.6,33.5,30.02,SE,127,0.0,0.0,40,0.00,,---,0.04,VWS V14.01,2013-05-20 10:07:00,
2013-05-20 06:12:00,57.6,33.5,30.02,SE,127,0.0,0.0,40,0.00,,---,0.04,VWS V14.01,2013-05-20 10:12:00,
2013-05-20 06:17:00,57.6,33.5,30.02,SE,127,0.0,0.0,40,0.00,,---,0.04,VWS V14.01,2013-05-20 10:17:00,
2013-05-20 06:22:00,57.6,33.5,30.02,SE,127,0.0,1.0,40,0.00,,---,0.04,VWS V14.01,2013-05-20 10:22:00,
2013-05-20 06:27:00,57.6,33.5,30.02,SE,127,0.0,1.0,40,0.00,,---,0.04,VWS V14.01,2013-05-20 10:27:00,
2013-05-20 06:30:00,57.5,33.4,30.01,SE,127,0.0,0.0,40,0.00,,---,0.04,VWS V14.01,2013-05-20 10:30:00,
2013-05-20 06:32:00,57.6,33.5,30.01,SE,127,0.0,0.0,40,0.00,,---,0.04,VWS V14.01,2013-05-20 10:32:00,
2013-05-20 06:37:00,57.8,33.7,30.01,SE,127,0.0,1.0,40,0.00,,---,0.04,VWS V14.01,2013-05-20 10:37:00,
2013-05-20 06:42:00,57.8,33.7,30.01,SE,127,0.0,1.0,40,0.00,,---,0.04,VWS V14.01,2013-05-20 10:42:00,
2013-05-20 06:47:00,57.8,33.7,30.02,SE,127,0.0,1.0,40,0.00,,---,0.04,VWS V14.01,2013-05-20 10:47:00,
2013-05-20 06:52:00,57.8,33.7,30.02,SE,127,0.0,1.0,40,0.00,,---,0.04,VWS V14.01,2013-05-20 10:52:00,
2013-05-20 06:57:00,58.0,33.8,30.02,SE,127,0.0,2.0,40,0.00,,---,0.04,VWS V14.01,2013-05-20 10:57:00,
2013-05-20 07:00:00,57.6,33.5,30.02,SE,127,0.0,1.0,40,0.00,,---,0.04,VWS V14.01,2013-05-20 11:00:00,
2013-05-20 07:02:00,58.0,33.8,30.02,SE,127,0.0,2.0,40,0.00,,---,0.04,VWS V14.01,2013-05-20 11:02:00,
2013-05-20 07:07:00,58.0,33.8,30.02,SE,127,1.0,2.0,40,0.00,,---,0.04,VWS V14.01,2013-05-20 11:07:00,
2013-05-20 07:12:00,58.0,33.8,30.02,SE,127,0.0,2.0,40,0.00,,---,0.04,VWS V14.01,2013-05-20 11:12:00,
2013-05-20 07:17:00,58.1,33.9,30.03,SE,127,0.0,2.0,40,0.00,,---,0.04,VWS V14.01,2013-05-20 11:17:00,
2013-05-20 07:22:00,58.1,33.9,30.03,SE,127,0.0,3.0,40,0.00,,---,0.04,VWS V14.01,2013-05-20 11:22:00,
2013-05-20 07:27:00,58.3,34.1,30.03,SE,127,0.0,3.0,40,0.00,,---,0.04,VWS V14.01,2013-05-20 11:27:00,
2013-05-20 07:30:00,57.6,33.5,30.01,SE,127,0.0,1.0,40,0.00,,---,0.04,VWS V14.01,2013-05-20 11:30:00,
2013-05-20 07:32:00,58.3,34.1,30.03,SE,142,1.0,2.0,40,0.01,,---,0.05,VWS V14.01,2013-05-20 11:32:00,
2013-05-20 07:37:00,58.3,34.1,30.03,SE,146,0.0,2.0,40,0.01,,---,0.05,VWS V14.01,2013-05-20 11:37:00,
2013-05-20 07:42:00,58.4,34.2,30.03,SSE,153,0.0,2.0,40,0.01,,---,0.05,VWS V14.01,2013-05-20 11:42:00,
2013-05-20 07:47:00,58.6,34.4,30.03,SSE,157,0.0,2.0,40,0.01,,---,0.05,VWS V14.01,2013-05-20 11:47:00,
2013-05-20 07:52:00,58.7,34.5,30.03,SSE,158,0.0,2.0,40,0.01,,---,0.05,VWS V14.01,2013-05-20 11:52:00,
2013-05-20 07:57:00,58.9,34.6,30.03,SSE,158,0.0,2.0,40,0.01,,---,0.05,VWS V14.01,2013-05-20 11:57:00,
2013-05-20 08:00:00,58.0,33.8,30.02,SE,127,2.0,3.0,40,0.00,,---,0.04,VWS V14.01,2013-05-20 12:00:00,
2013-05-20 08:02:00,59.0,34.7,30.03,SSE,158,0.0,0.0,40,0.01,,---,0.05,VWS V14.01,2013-05-20 12:02:00,
2013-05-20 08:07:00,59.3,35.0,30.03,SSE,158,0.0,0.0,40,0.01,,---,0.05,VWS V14.01,2013-05-20 12:07:00,
2013-05-20 08:12:00,59.2,34.9,30.03,South,181,1.0,3.0,40,0.01,,---,0.05,VWS V14.01,2013-05-20 12:12:00,
2013-05-20 08:17:00,59.0,34.7,30.02,South,184,0.0,3.0,40,0.01,,---,0.05,VWS V14.01,2013-05-20 12:17:00,
2013-05-20 08:22:00,59.2,34.9,30.02,South,187,0.0,3.0,40,0.01,,---,0.05,VWS V14.01,2013-05-20 12:22:00,
2013-05-20 08:27:00,59.3,35.0,30.02,SSW,195,2.0,4.0,40,0.01,,---,0.05,VWS V14.01,2013-05-20 12:27:00,
2013-05-20 08:30:00,58.4,34.2,30.03,SE,140,2.0,3.0,40,0.01,,---,0.05,VWS V14.01,2013-05-20 12:30:00,
2013-05-20 08:32:00,59.5,35.2,30.03,SSW,206,0.0,2.0,40,0.00,,---,0.05,VWS V14.01,2013-05-20 12:32:00,
2013-05-20 08:37:00,59.8,35.5,30.03,SSW,207,1.0,4.0,40,0.00,,---,0.05,VWS V14.01,2013-05-20 12:37:00,
2013-05-20 08:42:00,60.1,35.7,30.03,SSW,208,0.0,4.0,40,0.00,,---,0.05,VWS V14.01,2013-05-20 12:42:00,
2013-05-20 08:47:00,60.4,36.0,30.03,SSW,208,0.0,4.0,40,0.00,,---,0.05,VWS V14.01,2013-05-20 12:47:00,
2013-05-20 08:52:00,60.7,36.3,30.03,SSW,210,2.0,4.0,40,0.00,,---,0.05,VWS V14.01,2013-05-20 12:52:00,
2013-05-20 08:57:00,60.9,36.4,30.03,SW,223,2.0,4.0,40,0.00,,---,0.05,VWS V14.01,2013-05-20 12:57:00,
2013-05-20 09:00:00,59.0,34.7,30.03,SSE,158,0.0,2.0,40,0.01,,---,0.05,VWS V14.01,2013-05-20 13:00:00,
2013-05-20 09:02:00,60.9,36.4,30.04,SW,223,0.0,0.0,40,0.00,,---,0.05,VWS V14.01,2013-05-20 13:02:00,
2013-05-20 09:07:00,61.2,36.7,30.04,SW,223,0.0,1.0,40,0.00,,---,0.05,VWS V14.01,2013-05-20 13:07:00,
2013-05-20 09:12:00,61.0,36.5,30.04,SW,223,0.0,3.0,40,0.00,,---,0.05,VWS V14.01,2013-05-20 13:12:00,
2013-05-20 09:17:00,60.9,36.4,30.03,SW,223,0.0,4.0,40,0.00,,---,0.05,VWS V14.01,2013-05-20 13:17:00,
2013-05-20 09:22:00,61.2,36.7,30.03,SW,223,1.0,4.0,40,0.00,,---,0.05,VWS V14.01,2013-05-20 13:22:00,
2013-05-20 09:27:00,61.5,37.0,30.03,SW,223,2.0,4.0,40,0.00,,---,0.05,VWS V14.01,2013-05-20 13:27:00,
2013-05-20 09:30:00,59.5,35.2,30.03,SSW,206,1.0,5.0,40,0.01,,---,0.05,VWS V14.01,2013-05-20 13:30:00,
2013-05-20 09:32:00,61.6,37.1,30.03,SSW,204,3.0,5.0,40,0.00,,---,0.05,VWS V14.01,2013-05-20 13:32:00,
2013-05-20 09:37:00,61.8,37.2,30.03,SW,218,0.0,5.0,40,0.00,,---,0.05,VWS V14.01,2013-05-20 13:37:00,
2013-05-20 09:42:00,62.0,37.4,30.03,SW,234,3.0,5.0,40,0.00,,---,0.05,VWS V14.01,2013-05-20 13:42:00,
2013-05-20 09:47:00,61.8,37.2,30.03,WSW,241,2.0,5.0,40,0.00,,---,0.05,VWS V14.01,2013-05-20 13:47:00,
2013-05-20 09:53:00,62.0,37.4,30.03,WSW,242,1.0,5.0,40,0.00,,---,0.05,VWS V14.01,2013-05-20 13:53:00,
2013-05-20 09:58:00,62.1,37.5,30.03,SW,231,2.0,5.0,40,0.00,,---,0.05,VWS V14.01,2013-05-20 13:58:00,
2013-05-20 10:00:00,60.9,36.4,30.04,SW,223,0.0,4.0,40,0.00,,---,0.05,VWS V14.01,2013-05-20 14:00:00,
2013-05-20 10:03:00,62.1,37.5,30.02,WSW,245,1.0,4.0,40,0.00,,---,0.05,VWS V14.01,2013-05-20 14:03:00,
2013-05-20 10:08:00,62.1,37.5,30.02,SW,228,7.0,10.0,40,0.00,,---,0.05,VWS V14.01,2013-05-20 14:08:00,
2013-05-20 10:13:00,62.3,37.7,30.02,SW,214,1.0,10.0,40,0.00,,---,0.05,VWS V14.01,2013-05-20 14:13:00,
2013-05-20 10:18:00,62.3,37.7,30.02,WSW,257,2.0,10.0,40,0.00,,---,0.05,VWS V14.01,2013-05-20 14:18:00,
2013-05-20 10:23:00,62.3,37.7,30.02,WSW,238,1.0,10.0,40,0.00,,---,0.05,VWS V14.01,2013-05-20 14:23:00,
2013-05-20 10:28:00,62.1,37.5,30.02,West,259,3.0,10.0,40,0.00,,---,0.05,VWS V14.01,2013-05-20 14:28:00,
2013-05-20 10:30:00,61.6,37.1,30.03,SW,223,5.0,5.0,40,0.00,,---,0.05,VWS V14.01,2013-05-20 14:30:00,
2013-05-20 10:33:00,62.1,37.5,30.02,West,268,4.0,4.0,40,0.00,,---,0.05,VWS V14.01,2013-05-20 14:33:00,
2013-05-20 10:38:00,62.3,37.7,30.02,WSW,237,1.0,9.0,40,0.00,,---,0.05,VWS V14.01,2013-05-20 14:38:00,
2013-05-20 10:43:00,62.6,38.0,30.02,WNW,283,4.0,9.0,40,0.00,,---,0.05,VWS V14.01,2013-05-20 14:43:00,
2013-05-20 10:48:00,62.9,38.2,30.02,WNW,291,2.0,9.0,40,0.00,,---,0.05,VWS V14.01,2013-05-20 14:48:00,
2013-05-20 10:53:00,63.1,38.4,30.02,WNW,293,2.0,9.0,40,0.00,,---,0.05,VWS V14.01,2013-05-20 14:53:00,
2013-05-20 10:58:00,63.2,37.9,30.02,WNW,295,2.0,9.0,39,0.00,,---,0.05,VWS V14.01,2013-05-20 14:58:00,
2013-05-20 11:00:00,62.1,37.5,30.02,WSW,246,1.0,5.0,40,0.00,,---,0.05,VWS V14.01,2013-05-20 15:00:00,
2013-05-20 11:03:00,63.5,38.1,30.02,West,281,0.0,3.0,39,0.00,,---,0.05,VWS V14.01,2013-05-20 15:03:00,
2013-05-20 11:08:00,63.7,38.3,30.02,West,279,5.0,6.0,39,0.00,,---,0.05,VWS V14.01,2013-05-20 15:08:00,
2013-05-20 11:13:00,64.0,38.6,30.02,West,281,1.0,6.0,39,0.00,,---,0.05,VWS V14.01,2013-05-20 15:13:00,
2013-05-20 11:18:00,64.5,39.0,30.01,WNW,283,1.0,6.0,39,0.00,,---,0.05,VWS V14.01,2013-05-20 15:18:00,
2013-05-20 11:23:00,64.7,39.2,30.01,NW,304,1.0,6.0,39,0.00,,---,0.05,VWS V14.01,2013-05-20 15:23:00,
2013-05-20 11:28:00,65.0,39.5,30.01,WNW,303,2.0,6.0,39,0.00,,---,0.05,VWS V14.01,2013-05-20 15:28:00,
2013-05-20 11:30:00,62.1,37.5,30.02,West,259,2.0,10.0,40,0.00,,---,0.05,VWS V14.01,2013-05-20 15:30:00,
2013-05-20 11:33:00,65.2,39.6,30.00,WNW,295,3.0,4.0,39,0.00,,---,0.05,VWS V14.01,2013-05-20 15:33:00,
2013-05-20 11:38:00,65.5,39.9,30.00,SW,227,5.0,5.0,39,0.00,,---,0.05,VWS V14.01,2013-05-20 15:38:00,
2013-05-20 11:43:00,66.0,40.4,30.00,WSW,245,2.0,5.0,39,0.00,,---,0.05,VWS V14.01,2013-05-20 15:43:00,
2013-05-20 11:48:00,66.0,40.4,30.00,WSW,242,4.0,6.0,39,0.00,,---,0.05,VWS V14.01,2013-05-20 15:48:00,
2013-05-20 11:53:00,66.3,40.6,30.00,West,267,1.0,6.0,39,0.00,,---,0.05,VWS V14.01,2013-05-20 15:53:00,
2013-05-20 11:58:00,66.4,40.7,30.00,SW,222,2.0,7.0,39,0.00,,---,0.05,VWS V14.01,2013-05-20 15:58:00,
2013-05-20 12:00:00,63.4,38.0,30.02,West,281,2.0,9.0,39,0.00,,---,0.05,VWS V14.01,2013-05-20 16:00:00,
2013-05-20 12:03:00,66.9,41.2,29.99,SW,218,2.0,3.0,39,0.00,,---,0.05,VWS V14.01,2013-05-20 16:03:00,
2013-05-20 12:08:00,67.4,41.6,29.99,SW,226,3.0,4.0,39,0.00,,---,0.05,VWS V14.01,2013-05-20 16:08:00,
2013-05-20 12:13:00,67.8,42.0,29.99,West,266,1.0,6.0,39,0.00,,---,0.05,VWS V14.01,2013-05-20 16:13:00,
2013-05-20 12:18:00,68.1,41.6,29.98,West,278,1.0,6.0,38,0.00,,---,0.05,VWS V14.01,2013-05-20 16:18:00,
2013-05-20 12:23:00,68.3,41.7,29.98,WSW,252,1.0,7.0,38,0.00,,---,0.05,VWS V14.01,2013-05-20 16:23:00,
2013-05-20 12:28:00,69.1,42.5,29.98,NW,307,3.0,7.0,38,0.00,,---,0.05,VWS V14.01,2013-05-20 16:28:00,
2013-05-20 12:30:00,65.2,39.6,30.00,WNW,297,3.0,6.0,39,0.00,,---,0.05,VWS V14.01,2013-05-20 16:30:00,
2013-05-20 12:33:00,69.6,42.9,29.97,WNW,290,1.0,4.0,38,0.00,,---,0.05,VWS V14.01,2013-05-20 16:33:00,
2013-05-20 12:38:00,69.9,43.2,29.97,WNW,293,2.0,7.0,38,0.00,,---,0.05,VWS V14.01,2013-05-20 16:38:00,
2013-05-20 12:43:00,69.9,43.2,29.97,SSW,212,2.0,9.0,38,0.00,,---,0.05,VWS V14.01,2013-05-20 16:43:00,
2013-05-20 12:48:00,69.6,42.9,29.97,SW,231,2.0,10.0,38,0.00,,---,0.05,VWS V14.01,2013-05-20 16:48:00,
2013-05-20 12:53:00,70.3,43.5,29.97,SW,229,4.0,10.0,38,0.00,,---,0.05,VWS V14.01,2013-05-20 16:53:00,
2013-05-20 12:58:00,69.8,43.1,29.97,SW,226,5.0,11.0,38,0.00,,---,0.05,VWS V14.01,2013-05-20 16:58:00,
2013-05-20 13:00:00,66.9,41.2,29.99,SW,215,1.0,7.0,39,0.00,,---,0.05,VWS V14.01,2013-05-20 17:00:00,
2013-05-20 13:03:00,70.3,43.5,29.97,NW,319,5.0,6.0,38,0.00,,---,0.05,VWS V14.01,2013-05-20 17:03:00,
2013-05-20 13:08:00,70.3,43.5,29.97,West,262,3.0,10.0,38,0.00,,---,0.05,VWS V14.01,2013-05-20 17:08:00,
2013-05-20 13:13:00,70.4,43.6,29.97,SSW,205,5.0,10.0,38,0.00,,---,0.05,VWS V14.01,2013-05-20 17:13:00,
2013-05-20 13:18:00,69.6,42.9,29.96,SW,218,6.0,14.0,38,0.00,,---,0.05,VWS V14.01,2013-05-20 17:18:00,
2013-05-20 13:23:00,69.9,43.2,29.96,SSW,206,7.0,14.0,38,0.00,,---,0.05,VWS V14.01,2013-05-20 17:23:00,
2013-05-20 13:28:00,70.3,43.5,29.96,WSW,246,4.0,14.0,38,0.00,,---,0.05,VWS V14.01,2013-05-20 17:28:00,
2013-05-20 13:30:00,69.4,42.7,29.97,WNW,295,0.0,7.0,38,0.00,,---,0.05,VWS V14.01,2013-05-20 17:30:00,
2013-05-20 13:33:00,70.4,43.6,29.95,South,190,5.0,8.0,38,0.00,,---,0.05,VWS V14.01,2013-05-20 17:33:00,
2013-05-20 13:38:00,70.3,43.5,29.95,SSW,213,3.0,11.0,38,0.00,,---,0.05,VWS V14.01,2013-05-20 17:38:00,
2013-05-20 13:43:00,70.3,43.5,29.95,SSW,207,7.0,11.0,38,0.00,,---,0.05,VWS V14.01,2013-05-20 17:43:00,
2013-05-20 13:48:00,70.3,43.5,29.95,SSW,193,6.0,13.0,38,0.00,,---,0.05,VWS V14.01,2013-05-20 17:48:00,
2013-05-20 13:53:00,70.4,43.6,29.95,SSW,210,4.0,13.0,38,0.00,,---,0.05,VWS V14.01,2013-05-20 17:53:00,
2013-05-20 13:58:00,71.1,44.2,29.95,WSW,255,3.0,13.0,38,0.00,,---,0.05,VWS V14.01,2013-05-20 17:58:00,
2013-05-20 14:00:00,69.9,43.2,29.97,SW,219,0.0,11.0,38,0.00,,---,0.05,VWS V14.01,2013-05-20 18:00:00,
2013-05-20 14:03:00,71.5,44.6,29.95,WNW,287,6.0,9.0,38,0.00,,---,0.05,VWS V14.01,2013-05-20 18:03:00,
2013-05-20 14:08:00,72.0,45.0,29.95,South,191,3.0,9.0,38,0.00,,---,0.05,VWS V14.01,2013-05-20 18:08:00,
2013-05-20 14:13:00,72.5,45.5,29.95,SSE,162,7.0,9.0,38,0.00,,---,0.05,VWS V14.01,2013-05-20 18:13:00,
2013-05-20 14:18:00,73.3,45.5,29.95,WSW,241,5.0,9.0,37,0.00,,---,0.05,VWS V14.01,2013-05-20 18:18:00,
2013-05-20 14:23:00,73.3,45.5,29.95,South,186,6.0,11.0,37,0.00,,---,0.05,VWS V14.01,2013-05-20 18:23:00,
2013-05-20 14:28:00,73.5,45.7,29.95,SSE,148,6.0,11.0,37,0.00,,---,0.05,VWS V14.01,2013-05-20 18:28:00,
2013-05-20 14:30:00,70.3,43.5,29.95,SW,231,8.0,14.0,38,0.00,,---,0.05,VWS V14.01,2013-05-20 18:30:00,
2013-05-20 14:33:00,73.7,45.8,29.94,SSW,201,5.0,9.0,37,0.00,,---,0.05,VWS V14.01,2013-05-20 18:33:00,
2013-05-20 14:38:00,73.7,45.8,29.94,SSW,211,10.0,12.0,37,0.00,,---,0.05,VWS V14.01,2013-05-20 18:38:00,
2013-05-20 14:43:00,73.5,45.7,29.94,SW,224,3.0,13.0,37,0.00,,---,0.05,VWS V14.01,2013-05-20 18:43:00,
2013-05-20 14:48:00,73.9,46.0,29.94,WSW,241,10.0,14.0,37,0.00,,---,0.05,VWS V14.01,2013-05-20 18:48:00,
2013-05-20 14:53:00,74.6,46.6,29.94,West,277,2.0,14.0,37,0.00,,---,0.05,VWS V14.01,2013-05-20 18:53:00,
2013-05-20 14:58:00,74.7,46.7,29.94,WSW,238,5.0,14.0,37,0.00,,---,0.05,VWS V14.01,2013-05-20 18:58:00,
2013-05-20 15:00:00,71.5,44.6,29.95,SW,221,4.0,13.0,38,0.00,,---,0.05,VWS V14.01,2013-05-20 19:00:00,
2013-05-20 15:03:00,74.7,46.7,29.94,SW,231,1.0,5.0,37,0.00,,---,0.05,VWS V14.01,2013-05-20 19:03:00,
2013-05-20 15:08:00,75.1,47.1,29.94,SW,235,12.0,12.0,37,0.00,,---,0.05,VWS V14.01,2013-05-20 19:08:00,
2013-05-20 15:13:00,74.7,46.7,29.94,West,274,2.0,14.0,37,0.00,,---,0.05,VWS V14.01,2013-05-20 19:13:00,
2013-05-20 15:18:00,74.9,46.9,29.94,WNW,286,2.0,14.0,37,0.00,,---,0.05,VWS V14.01,2013-05-20 19:18:00,
2013-05-20 15:23:00,74.2,46.3,29.94,WSW,256,5.0,14.0,37,0.00,,---,0.05,VWS V14.01,2013-05-20 19:23:00,
2013-05-20 15:28:00,74.4,46.5,29.94,WSW,240,6.0,14.0,37,0.00,,---,0.05,VWS V14.01,2013-05-20 19:28:00,
2013-05-20 15:30:00,73.7,45.8,29.94,South,181,0.0,11.0,37,0.00,,---,0.05,VWS V14.01,2013-05-20 19:30:00,
2013-05-20 15:33:00,74.2,46.3,29.94,SW,217,9.0,10.0,37,0.00,,---,0.05,VWS V14.01,2013-05-20 19:33:00,
2013-05-20 15:38:00,74.6,46.6,29.94,SSW,200,4.0,12.0,37,0.00,,---,0.05,VWS V14.01,2013-05-20 19:38:00,
2013-05-20 15:43:00,74.4,46.5,29.94,SW,217,3.0,14.0,37,0.00,,---,0.05,VWS V14.01,2013-05-20 19:43:00,
2013-05-20 15:48:00,74.7,46.7,29.93,SSW,211,10.0,14.0,37,0.00,,---,0.05,VWS V14.01,2013-05-20 19:48:00,
2013-05-20 15:53:00,75.3,47.3,29.93,NW,309,5.0,14.0,37,0.00,,---,0.05,VWS V14.01,2013-05-20 19:53:00,
2013-05-20 15:58:00,75.3,47.3,29.93,SW,232,2.0,14.0,37,0.00,,---,0.05,VWS V14.01,2013-05-20 19:58:00,
2013-05-20 16:00:00,74.6,46.6,29.94,SW,220,4.0,14.0,37,0.00,,---,0.05,VWS V14.01,2013-05-20 20:00:00,
2013-05-20 16:03:00,75.4,47.3,29.92,WNW,302,7.0,11.0,37,0.00,,---,0.05,VWS V14.01,2013-05-20 20:03:00,
2013-05-20 16:08:00,75.4,47.3,29.92,WSW,243,6.0,14.0,37,0.00,,---,0.05,VWS V14.01,2013-05-20 20:08:00,
2013-05-20 16:13:00,75.4,47.3,29.92,South,183,4.0,14.0,37,0.00,,---,0.05,VWS V14.01,2013-05-20 20:13:00,
2013-05-20 16:18:00,75.6,47.5,29.92,West,269,6.0,14.0,37,0.00,,---,0.05,VWS V14.01,2013-05-20 20:18:00,
2013-05-20 16:23:00,76.1,48.0,29.92,West,272,2.0,14.0,37,0.00,,---,0.05,VWS V14.01,2013-05-20 20:23:00,
2013-05-20 16:28:00,76.7,48.5,29.92,WSW,244,2.0,14.0,37,0.00,,---,0.05,VWS V14.01,2013-05-20 20:28:00,
2013-05-20 16:30:00,74.2,46.3,29.94,West,266,6.0,15.0,37,0.00,,---,0.05,VWS V14.01,2013-05-20 20:30:00,
2013-05-20 16:33:00,76.7,48.5,29.91,SW,226,4.0,5.0,37,0.00,,---,0.05,VWS V14.01,2013-05-20 20:33:00,
2013-05-20 16:38:00,76.8,48.6,29.91,SSW,198,16.0,17.0,37,0.00,,---,0.05,VWS V14.01,2013-05-20 20:38:00,
2013-05-20 16:43:00,76.7,48.5,29.91,WSW,256,3.0,17.0,37,0.00,,---,0.05,VWS V14.01,2013-05-20 20:43:00,
2013-05-20 16:48:00,76.5,48.3,29.91,West,262,6.0,17.0,37,0.00,,---,0.05,VWS V14.01,2013-05-20 20:48:00,
2013-05-20 16:53:00,76.3,48.1,29.91,WSW,248,12.0,17.0,37,0.00,,---,0.05,VWS V14.01,2013-05-20 20:53:00,
2013-05-20 16:58:00,76.1,48.0,29.91,SSW,212,5.0,17.0,37,0.00,,---,0.05,VWS V14.01,2013-05-20 20:58:00,
2013-05-20 17:00:00,75.4,47.3,29.92,West,271,5.0,14.0,37,0.00,,---,0.05,VWS V14.01,2013-05-20 21:00:00,
2013-05-20 17:03:00,75.8,47.7,29.90,South,178,13.0,15.0,37,0.00,,---,0.05,VWS V14.01,2013-05-20 21:03:00,
2013-05-20 17:08:00,75.3,47.3,29.90,WNW,291,3.0,18.0,37,0.00,,---,0.05,VWS V14.01,2013-05-20 21:08:00,
2013-05-20 17:13:00,75.1,47.1,29.90,WSW,251,4.0,18.0,37,0.00,,---,0.05,VWS V14.01,2013-05-20 21:13:00,
2013-05-20 17:18:00,75.1,47.1,29.90,West,268,7.0,18.0,37,0.00,,---,0.05,VWS V14.01,2013-05-20 21:18:00,
2013-05-20 17:23:00,75.3,47.3,29.90,WSW,255,5.0,18.0,37,0.00,,---,0.05,VWS V14.01,2013-05-20 21:23:00,
2013-05-20 17:28:00,75.4,47.3,29.90,WNW,290,3.0,18.0,37,0.00,,---,0.05,VWS V14.01,2013-05-20 21:28:00,
2013-05-20 17:30:00,76.7,48.5,29.91,NW,316,3.0,16.0,37,0.00,,---,0.05,VWS V14.01,2013-05-20 21:30:00,
2013-05-20 17:33:00,75.6,47.5,29.90,WNW,282,4.0,7.0,37,0.00,,---,0.05,VWS V14.01,2013-05-20 21:33:00,
2013-05-20 17:38:00,75.4,47.3,29.90,SW,219,1.0,11.0,37,0.00,,---,0.05,VWS V14.01,2013-05-20 21:38:00,
2013-05-20 17:43:00,75.6,47.5,29.90,WSW,255,10.0,14.0,37,0.00,,---,0.05,VWS V14.01,2013-05-20 21:43:00,
2013-05-20 17:48:00,75.3,47.3,29.91,NW,309,4.0,14.0,37,0.00,,---,0.05,VWS V14.01,2013-05-20 21:48:00,
2013-05-20 17:53:00,74.9,46.9,29.91,SW,227,3.0,16.0,37,0.00,,---,0.05,VWS V14.01,2013-05-20 21:53:00,
2013-05-20 17:58:00,74.9,46.9,29.91,SW,222,5.0,16.0,37,0.00,,---,0.05,VWS V14.01,2013-05-20 21:58:00,
2013-05-20 18:00:00,76.0,47.9,29.90,WSW,240,6.0,17.0,37,0.00,,---,0.05,VWS V14.01,2013-05-20 22:00:00,
2013-05-20 18:03:00,74.9,46.9,29.91,WNW,285,2.0,8.0,37,0.00,,---,0.05,VWS V14.01,2013-05-20 22:03:00,
2013-05-20 18:08:00,74.9,46.9,29.91,West,265,6.0,11.0,37,0.00,,---,0.05,VWS V14.01,2013-05-20 22:08:00,
2013-05-20 18:13:00,74.9,46.9,29.91,WNW,285,2.0,11.0,37,0.00,,---,0.05,VWS V14.01,2013-05-20 22:13:00,
2013-05-20 18:18:00,74.9,46.9,29.91,West,261,1.0,16.0,37,0.00,,---,0.05,VWS V14.01,2013-05-20 22:18:00,
2013-05-20 18:23:00,75.1,47.1,29.91,SW,226,1.0,16.0,37,0.00,,---,0.05,VWS V14.01,2013-05-20 22:23:00,
2013-05-20 18:28:00,75.1,47.1,29.91,NW,305,6.0,16.0,37,0.00,,---,0.05,VWS V14.01,2013-05-20 22:28:00,
2013-05-20 18:30:00,75.6,47.5,29.90,WNW,284,1.0,18.0,37,0.00,,---,0.05,VWS V14.01,2013-05-20 22:30:00,
2013-05-20 18:33:00,74.9,46.9,29.92,West,266,4.0,7.0,37,0.00,,---,0.05,VWS V14.01,2013-05-20 22:33:00,
2013-05-20 18:38:00,74.7,46.7,29.92,SW,217,0.0,9.0,37,0.00,,---,0.05,VWS V14.01,2013-05-20 22:38:00,
2013-05-20 18:43:00,74.7,46.7,29.92,WSW,238,0.0,9.0,37,0.00,,---,0.05,VWS V14.01,2013-05-20 22:43:00,
2013-05-20 18:48:00,74.6,46.6,29.92,WSW,237,5.0,15.0,37,0.00,,---,0.05,VWS V14.01,2013-05-20 22:48:00,
2013-05-20 18:53:00,74.4,46.5,29.92,WNW,287,0.0,15.0,37,0.00,,---,0.05,VWS V14.01,2013-05-20 22:53:00,
2013-05-20 18:58:00,74.4,46.5,29.92,West,262,2.0,15.0,37,0.00,,---,0.05,VWS V14.01,2013-05-20 22:58:00,
2013-05-20 19:00:00,74.9,46.9,29.91,WNW,282,7.0,16.0,37,0.00,,---,0.05,VWS V14.01,2013-05-20 23:00:00,
2013-05-20 19:03:00,74.0,46.1,29.92,SW,236,5.0,10.0,37,0.00,,---,0.05,VWS V14.01,2013-05-20 23:03:00,
2013-05-20 19:08:00,73.7,46.5,29.92,WSW,239,1.0,10.0,38,0.00,,---,0.05,VWS V14.01,2013-05-20 23:08:00,
2013-05-20 19:13:00,73.5,46.4,29.92,SW,232,5.0,10.0,38,0.00,,---,0.05,VWS V14.01,2013-05-20 23:13:00,
2013-05-20 19:18:00,73.2,46.1,29.91,WSW,242,5.0,10.0,38,0.00,,---,0.05,VWS V14.01,2013-05-20 23:18:00,
2013-05-20 19:23:00,73.0,45.9,29.91,SSW,204,2.0,10.0,38,0.00,,---,0.05,VWS V14.01,2013-05-20 23:23:00,
2013-05-20 19:28:00,72.8,45.7,29.91,SW,226,3.0,10.0,38,0.00,,---,0.05,VWS V14.01,2013-05-20 23:28:00,
2013-05-20 19:30:00,74.9,46.9,29.92,WSW,238,3.0,16.0,37,0.00,,---,0.05,VWS V14.01,2013-05-20 23:30:00,
2013-05-20 19:33:00,72.5,45.5,29.91,SW,226,2.0,6.0,38,0.00,,---,0.05,VWS V14.01,2013-05-20 23:33:00,
2013-05-20 19:38:00,72.3,45.3,29.91,SSW,208,6.0,11.0,38,0.00,,---,0.05,VWS V14.01,2013-05-20 23:38:00,
2013-05-20 19:43:00,72.0,45.0,29.91,WSW,242,0.0,11.0,38,0.00,,---,0.05,VWS V14.01,2013-05-20 23:43:00,
2013-05-20 19:48:00,71.6,44.7,29.91,SW,228,4.0,11.0,38,0.00,,---,0.05,VWS V14.01,2013-05-20 23:48:00,
2013-05-20 19:53:00,71.1,44.2,29.91,SSW,200,3.0,11.0,38,0.00,,---,0.05,VWS V14.01,2013-05-20 23:53:00,
2013-05-20 19:58:00,70.6,43.8,29.91,SW,215,6.0,12.0,38,0.00,,---,0.05,VWS V14.01,2013-05-20 23:58:00,
2013-05-20 20:00:00,74.0,46.1,29.92,WSW,248,5.0,15.0,37,0.00,,---,0.05,VWS V14.01,2013-05-21 00:00:00,
2013-05-20 20:03:00,69.9,43.2,29.91,South,179,2.0,9.0,38,0.00,,---,0.05,VWS V14.01,2013-05-21 00:03:00,
2013-05-20 20:08:00,69.6,42.9,29.91,WSW,237,2.0,11.0,38,0.00,,---,0.05,VWS V14.01,2013-05-21 00:08:00,
2013-05-20 20:13:00,69.3,42.6,29.91,West,270,2.0,11.0,38,0.00,,---,0.05,VWS V14.01,2013-05-21 00:13:00,
2013-05-20 20:18:00,68.9,42.3,29.91,SW,232,0.0,11.0,38,0.00,,---,0.05,VWS V14.01,2013-05-21 00:18:00,
2013-05-20 20:23:00,68.6,42.7,29.91,SSW,202,0.0,11.0,39,0.00,,---,0.05,VWS V14.01,2013-05-21 00:23:00,
2013-05-20 20:28:00,68.3,42.4,29.91,SW,226,4.0,11.0,39,0.00,,---,0.05,VWS V14.01,2013-05-21 00:28:00,
2013-05-20 20:30:00,72.7,45.7,29.91,SSW,198,4.0,10.0,38,0.00,,---,0.05,VWS V14.01,2013-05-21 00:30:00,
2013-05-20 20:33:00,67.9,42.1,29.92,SSW,207,2.0,2.0,39,0.00,,---,0.05,VWS V14.01,2013-05-21 00:33:00,
2013-05-20 20:38:00,67.6,41.8,29.92,SW,227,3.0,8.0,39,0.00,,---,0.05,VWS V14.01,2013-05-21 00:38:00,
2013-05-20 20:43:00,67.4,41.6,29.92,SW,236,0.0,8.0,39,0.00,,---,0.05,VWS V14.01,2013-05-21 00:43:00,
2013-05-20 20:48:00,67.1,41.3,29.92,WSW,237,3.0,8.0,39,0.00,,---,0.05,VWS V14.01,2013-05-21 00:48:00,
2013-05-20 20:53:00,66.9,41.2,29.92,WSW,237,0.0,8.0,39,0.00,,---,0.05,VWS V14.01,2013-05-21 00:53:00,
2013-05-20 20:58:00,66.8,41.1,29.92,WNW,288,0.0,8.0,39,0.00,,---,0.05,VWS V14.01,2013-05-21 00:58:00,
2013-05-20 21:00:00,70.3,43.5,29.91,SW,226,5.0,12.0,38,0.00,,---,0.05,VWS V14.01,2013-05-21 01:00:00,
2013-05-20 21:03:00,66.6,40.9,29.93,WNW,296,3.0,3.0,39,0.00,,---,0.05,VWS V14.01,2013-05-21 01:03:00,
2013-05-20 21:08:00,66.4,40.7,29.93,WNW,295,0.0,4.0,39,0.00,,---,0.05,VWS V14.01,2013-05-21 01:08:00,
2013-05-20 21:13:00,66.3,40.6,29.93,SW,236,0.0,5.0,39,0.00,,---,0.05,VWS V14.01,2013-05-21 01:13:00,
2013-05-20 21:18:00,66.1,40.5,29.93,SW,236,0.0,5.0,39,0.00,,---,0.05,VWS V14.01,2013-05-21 01:18:00,
2013-05-20 21:23:00,66.0,40.4,29.93,SW,236,0.0,5.0,39,0.00,,---,0.05,VWS V14.01,2013-05-21 01:23:00,
2013-05-20 21:28:00,65.8,40.2,29.93,SW,236,0.0,5.0,39,0.00,,---,0.05,VWS V14.01,2013-05-21 01:28:00,
2013-05-20 21:30:00,68.1,42.2,29.92,SSW,207,0.0,11.0,39,0.00,,---,0.05,VWS V14.01,2013-05-21 01:30:00,
2013-05-20 21:33:00,65.8,40.2,29.93,SW,236,2.0,2.0,39,0.00,,---,0.05,VWS V14.01,2013-05-21 01:33:00,
2013-05-20 21:38:00,65.6,40.0,29.93,WSW,244,0.0,5.0,39,0.00,,---,0.05,VWS V14.01,2013-05-21 01:38:00,
2013-05-20 21:43:00,65.6,40.0,29.93,WSW,243,0.0,5.0,39,0.00,,---,0.05,VWS V14.01,2013-05-21 01:43:00,
2013-05-20 21:48:00,65.5,39.9,29.94,WSW,244,0.0,5.0,39,0.00,,---,0.05,VWS V14.01,2013-05-21 01:48:00,
2013-05-20 21:53:00,65.5,39.9,29.94,WSW,244,0.0,5.0,39,0.00,,---,0.05,VWS V14.01,2013-05-21 01:53:00,
2013-05-20 21:58:00,65.3,39.7,29.94,WSW,244,0.0,5.0,39,0.00,,---,0.05,VWS V14.01,2013-05-21 01:58:00,
2013-05-20 22:00:00,66.8,41.1,29.93,WNW,296,0.0,8.0,39,0.00,,---,0.05,VWS V14.01,2013-05-21 02:00:00,
2013-05-20 22:03:00,65.2,39.6,29.94,WSW,244,0.0,0.0,39,0.00,,---,0.05,VWS V14.01,2013-05-21 02:03:00,
2013-05-20 22:09:00,65.2,39.6,29.94,WSW,244,0.0,1.0,39,0.00,,---,0.05,VWS V14.01,2013-05-21 02:09:00,
2013-05-20 22:14:00,65.2,40.3,29.94,WSW,244,0.0,2.0,40,0.00,,---,0.05,VWS V14.01,2013-05-21 02:14:00,
2013-05-20 22:19:00,65.2,40.3,29.93,WSW,244,4.0,5.0,40,0.00,,---,0.05,VWS V14.01,2013-05-21 02:19:00,
2013-05-20 22:24:00,65.2,40.3,29.93,WSW,245,1.0,5.0,40,0.00,,---,0.05,VWS V14.01,2013-05-21 02:24:00,
2013-05-20 22:29:00,65.2,40.3,29.93,WSW,245,0.0,5.0,40,0.00,,---,0.05,VWS V14.01,2013-05-21 02:29:00,
2013-05-20 22:30:00,65.8,40.2,29.93,SW,236,0.0,5.0,39,0.00,,---,0.05,VWS V14.01,2013-05-21 02:30:00,
2013-05-20 22:34:00,65.2,40.3,29.93,WSW,245,0.0,0.0,40,0.00,,---,0.05,VWS V14.01,2013-05-21 02:34:00,
2013-05-20 22:39:00,65.0,40.1,29.93,WSW,245,0.0,0.0,40,0.00,,---,0.05,VWS V14.01,2013-05-21 02:39:00,
2013-05-20 22:44:00,65.0,40.1,29.93,WSW,245,0.0,0.0,40,0.00,,---,0.05,VWS V14.01,2013-05-21 02:44:00,
2013-05-20 22:49:00,65.0,40.1,29.92,WSW,245,0.0,0.0,40,0.00,,---,0.05,VWS V14.01,2013-05-21 02:49:00,
2013-05-20 22:54:00,64.8,39.9,29.92,WSW,245,0.0,0.0,40,0.00,,---,0.05,VWS V14.01,2013-05-21 02:54:00,
2013-05-20 22:59:00,64.7,39.8,29.92,WSW,245,0.0,0.0,40,0.00,,---,0.05,VWS V14.01,2013-05-21 02:59:00,
2013-05-20 23:00:00,65.3,39.7,29.94,WSW,243,0.0,5.0,39,0.00,,---,0.05,VWS V14.01,2013-05-21 03:00:00,
2013-05-20 23:04:00,64.5,39.7,29.92,WSW,245,0.0,0.0,40,0.00,,---,0.00,VWS V14.01,2013-05-21 03:04:00,
2013-05-20 23:09:00,64.3,39.5,29.92,WSW,245,0.0,0.0,40,0.00,,---,0.00,VWS V14.01,2013-05-21 03:09:00,
2013-05-20 23:14:00,64.2,39.4,29.92,WSW,245,0.0,0.0,40,0.00,,---,0.00,VWS V14.01,2013-05-21 03:14:00,
2013-05-20 23:19:00,64.2,39.4,29.92,WSW,245,0.0,0.0,40,0.00,,---,0.00,VWS V14.01,2013-05-21 03:19:00,
2013-05-20 23:24:00,64.2,39.4,29.92,WSW,245,0.0,0.0,40,0.00,,---,0.00,VWS V14.01,2013-05-21 03:24:00,
2013-05-20 23:29:00,63.7,39.0,29.92,WSW,245,0.0,1.0,40,0.00,,---,0.00,VWS V14.01,2013-05-21 03:29:00,
2013-05-20 23:30:00,65.2,40.3,29.93,WSW,245,0.0,5.0,40,0.00,,---,0.05,VWS V14.01,2013-05-21 03:30:00,
2013-05-20 23:34:00,63.5,38.8,29.92,WSW,245,0.0,0.0,40,0.00,,---,0.00,VWS V14.01,2013-05-21 03:34:00,
2013-05-20 23:39:00,63.4,38.7,29.92,WSW,245,0.0,0.0,40,0.00,,---,0.00,VWS V14.01,2013-05-21 03:39:00,
2013-05-20 23:44:00,63.4,38.7,29.92,WSW,245,0.0,0.0,40,0.00,,---,0.00,VWS V14.01,2013-05-21 03:44:00,
2013-05-20 23:49:00,63.4,38.7,29.92,WSW,245,0.0,0.0,40,0.00,,---,0.00,VWS V14.01,2013-05-21 03:49:00,
2013-05-20 23:54:00,63.2,38.5,29.92,WSW,245,0.0,0.0,40,0.00,,---,0.00,VWS V14.01,2013-05-21 03:54:00,
2013-05-20 23:59:00,63.1,38.4,29.92,WSW,245,0.0,0.0,40,0.00,,---,0.00,VWS V14.01,2013-05-21 03:59:00,